Sealyon — 2CGJ2 — position and weather

sailwx.info

Track history (hours):
 
Tides and Currents Weather Stations Pressure Air Temp Water Temp Dewpoint Dewpoint Depression Visibility Wind Speed Wind Dir Waves Ship Positions

Sealyon

Last reported at 2016-Jul-12 18:29 UTC. Time now 2016-Jul-23 17:01 UTC.
Position N 41°09' E 009°32'.
Warning: this ship's position is 10 days out of date.

Length 62 m; draft 3.2 m.

Type: Pleasure craft. MMSI: 235072538.

Date/timePositionNaut miles runAvg speedWind from/ knotsBaromVisibWave heightAir tempDewpointWater temp
2016-Jul-12 18:29N 41°09' E 009°32'89 4.7
2016-Jul-11 23:29N 42°06' E 008°02'1312.8
2016-Jul-11 22:29N 42°16' E 007°51'1213.0
2016-Jul-11 21:33N 42°25' E 007°40'1313.3
2016-Jul-11 20:33N 42°35' E 007°28'1313.2
2016-Jul-11 19:33N 42°44' E 007°16'1313.3
2016-Jul-11 18:33N 42°54' E 007°04'1313.4
2016-Jul-11 17:33N 43°05' E 006°52'1111.1
2016-Jul-11 16:33N 43°12' E 006°41'0 0.0
2016-Jul-11 15:33N 43°12' E 006°41'0 0.0
2016-Jul-11 14:33N 43°12' E 006°41'0 0.0
2016-Jul-11 13:33N 43°12' E 006°41'1 0.7
2016-Jul-11 12:33N 43°13' E 006°41'4 4.4
2016-Jul-11 11:33N 43°16' E 006°37'0 0.0
2016-Jul-11 10:33N 43°16' E 006°37'0 0.0
2016-Jul-11 09:19N 43°16' E 006°37'0 0.0
2016-Jul-11 05:32N 43°16' E 006°37'0 0.0
2016-Jul-11 04:22N 43°16' E 006°37'0 0.0
2016-Jul-10 23:28N 43°16' E 006°37'0 0.0
2016-Jul-10 22:18N 43°16' E 006°37'0 0.0
2016-Jul-10 21:33N 43°16' E 006°37'0 0.0
2016-Jul-10 20:33N 43°16' E 006°37'0 0.0
2016-Jul-10 19:33N 43°16' E 006°37'0 0.0
2016-Jul-10 18:33N 43°16' E 006°37'4 3.8
2016-Jul-10 17:31N 43°15' E 006°42'2 2.0
2016-Jul-10 16:29N 43°13' E 006°40'21 2.3
2016-Jul-10 07:33N 43°28' E 007°01'7 7.1
2016-Jul-10 06:33N 43°34' E 007°07'0 0.0
2016-Jul-10 05:33N 43°34' E 007°07'0 0.0
2016-Jul-10 04:33N 43°34' E 007°07'0 0.0
2016-Jul-10 03:33N 43°34' E 007°07'0 0.0
2016-Jul-10 02:33N 43°34' E 007°07'0 0.0
2016-Jul-10 01:33N 43°34' E 007°07'0 0.0
2016-Jul-10 00:33N 43°34' E 007°07'0 0.0
2016-Jul-09 23:33N 43°34' E 007°07'0 0.0
2016-Jul-09 22:33N 43°34' E 007°07'0 0.0
2016-Jul-09 21:33N 43°34' E 007°07'0 0.0
2016-Jul-09 20:33N 43°34' E 007°07'0 0.0
2016-Jul-09 19:33N 43°34' E 007°07'0 0.0
2016-Jul-09 18:33N 43°34' E 007°07'0 0.0
2016-Jul-09 17:33N 43°34' E 007°07'0 0.0
2016-Jul-09 16:33N 43°34' E 007°07'0 0.0
2016-Jul-09 15:33N 43°34' E 007°07'0 0.0
2016-Jul-09 14:33N 43°34' E 007°07'0 0.0
2016-Jul-09 13:33N 43°34' E 007°07'0 0.0
2016-Jul-09 12:33N 43°34' E 007°07'0 0.0
2016-Jul-09 11:33N 43°34' E 007°07'0 0.0
2016-Jul-09 10:33N 43°34' E 007°07'0 0.0
2016-Jul-09 09:33N 43°34' E 007°07'0 0.0
2016-Jul-09 08:33N 43°34' E 007°07'0 0.0
2016-Jul-09 07:33N 43°34' E 007°07'0 0.0
2016-Jul-09 06:33N 43°34' E 007°07'0 0.0
2016-Jul-09 04:33N 43°34' E 007°07'0 0.0
2016-Jul-09 03:33N 43°34' E 007°07'0 0.0
2016-Jul-09 02:33N 43°34' E 007°07'0 0.0
2016-Jul-09 01:33N 43°34' E 007°07'0 0.0
2016-Jul-09 00:33N 43°34' E 007°07'0 0.0
2016-Jul-08 23:33N 43°34' E 007°07'2 1.9
2016-Jul-08 22:33N 43°32' E 007°08'1312.7
2016-Jul-08 21:32N 43°41' E 007°22'1 0.9
2016-Jul-08 20:28N 43°42' E 007°21'0 0.0
2016-Jul-08 19:20N 43°42' E 007°21'0 0.0
2016-Jul-08 15:11N 43°42' E 007°21'0 0.0
2016-Jul-08 12:25N 43°42' E 007°21'0 0.0
2016-Jul-08 09:24N 43°42' E 007°21'0 0.0
2016-Jul-08 08:24N 43°42' E 007°21'1 1.0
2016-Jul-08 07:33N 43°42' E 007°21'  
2016-Jul-05 11:19N 43°44' E 007°26'5112.9
2016-Jul-05 07:21N 44°08' E 008°29'1214.6
2016-Jul-05 06:33N 44°17' E 008°40'11 5.5
2016-Jul-05 04:34N 44°25' E 008°50'0 0.0
2016-Jul-05 03:34N 44°25' E 008°50'0 0.0
2016-Jul-05 02:34N 44°25' E 008°50'2 2.3
2016-Jul-05 01:34N 44°24' E 008°48'1211.9
2016-Jul-05 00:33N 44°19' E 009°03'8 3.6
2016-Jul-04 22:27N 44°19' E 009°13'0 0.0
2016-Jul-04 21:24N 44°19' E 009°13'0 0.0
2016-Jul-04 20:31N 44°19' E 009°13'0 0.0
2016-Jul-04 16:10N 44°19' E 009°13'0 0.0
2016-Jul-04 12:21N 44°19' E 009°13'0 0.0
2016-Jul-04 11:22N 44°19' E 009°13'0 0.0
2016-Jul-04 10:26N 44°19' E 009°13'0 0.0
2016-Jul-04 09:20N 44°19' E 009°13'0 0.0
2016-Jul-04 08:33N 44°19' E 009°13'0 0.0
2016-Jul-04 07:34N 44°19' E 009°13'0 0.0
2016-Jul-04 06:19N 44°19' E 009°13'0 0.0
2016-Jul-04 04:30N 44°19' E 009°13'0 0.0
2016-Jul-04 03:15N 44°19' E 009°13'0 0.0
2016-Jul-04 02:28N 44°19' E 009°13'0 0.0
2016-Jul-04 01:20N 44°19' E 009°13'0 0.0
2016-Jul-04 00:11N 44°19' E 009°13'0 0.0
2016-Jul-03 23:18N 44°19' E 009°13'  
Track history (hours):
 
Tides and Currents Weather Stations Pressure Air Temp Water Temp Dewpoint Dewpoint Depression Visibility Wind Speed Wind Dir Waves Ship Positions

Sealyon

Last reported at 2016-Jul-12 18:29 UTC. Time now 2016-Jul-23 17:01 UTC.
Position N 41°09' E 009°32'.
Warning: this ship's position is 10 days out of date.

Length 62 m; draft 3.2 m.

Type: Pleasure craft. MMSI: 235072538.

Date/timePositionNaut miles runAvg speedWind from/ knotsBaromVisibWave heightAir tempDewpointWater temp
2016-Jul-12 18:29N 41°09' E 009°32'89 4.7
2016-Jul-11 23:29N 42°06' E 008°02'1312.8
2016-Jul-11 22:29N 42°16' E 007°51'1213.0
2016-Jul-11 21:33N 42°25' E 007°40'1313.3
2016-Jul-11 20:33N 42°35' E 007°28'1313.2
2016-Jul-11 19:33N 42°44' E 007°16'1313.3
2016-Jul-11 18:33N 42°54' E 007°04'1313.4
2016-Jul-11 17:33N 43°05' E 006°52'1111.1
2016-Jul-11 16:33N 43°12' E 006°41'0 0.0
2016-Jul-11 15:33N 43°12' E 006°41'0 0.0
2016-Jul-11 14:33N 43°12' E 006°41'0 0.0
2016-Jul-11 13:33N 43°12' E 006°41'1 0.7
2016-Jul-11 12:33N 43°13' E 006°41'4 4.4
2016-Jul-11 11:33N 43°16' E 006°37'0 0.0
2016-Jul-11 10:33N 43°16' E 006°37'0 0.0
2016-Jul-11 09:19N 43°16' E 006°37'0 0.0
2016-Jul-11 05:32N 43°16' E 006°37'0 0.0
2016-Jul-11 04:22N 43°16' E 006°37'0 0.0
2016-Jul-10 23:28N 43°16' E 006°37'0 0.0
2016-Jul-10 22:18N 43°16' E 006°37'0 0.0
2016-Jul-10 21:33N 43°16' E 006°37'0 0.0
2016-Jul-10 20:33N 43°16' E 006°37'0 0.0
2016-Jul-10 19:33N 43°16' E 006°37'0 0.0
2016-Jul-10 18:33N 43°16' E 006°37'4 3.8
2016-Jul-10 17:31N 43°15' E 006°42'2 2.0
2016-Jul-10 16:29N 43°13' E 006°40'21 2.3
2016-Jul-10 07:33N 43°28' E 007°01'7 7.1
2016-Jul-10 06:33N 43°34' E 007°07'0 0.0
2016-Jul-10 05:33N 43°34' E 007°07'0 0.0
2016-Jul-10 04:33N 43°34' E 007°07'0 0.0
2016-Jul-10 03:33N 43°34' E 007°07'0 0.0
2016-Jul-10 02:33N 43°34' E 007°07'0 0.0
2016-Jul-10 01:33N 43°34' E 007°07'0 0.0
2016-Jul-10 00:33N 43°34' E 007°07'0 0.0
2016-Jul-09 23:33N 43°34' E 007°07'0 0.0
2016-Jul-09 22:33N 43°34' E 007°07'0 0.0
2016-Jul-09 21:33N 43°34' E 007°07'0 0.0
2016-Jul-09 20:33N 43°34' E 007°07'0 0.0
2016-Jul-09 19:33N 43°34' E 007°07'0 0.0
2016-Jul-09 18:33N 43°34' E 007°07'0 0.0
2016-Jul-09 17:33N 43°34' E 007°07'0 0.0
2016-Jul-09 16:33N 43°34' E 007°07'0 0.0
2016-Jul-09 15:33N 43°34' E 007°07'0 0.0
2016-Jul-09 14:33N 43°34' E 007°07'0 0.0
2016-Jul-09 13:33N 43°34' E 007°07'0 0.0
2016-Jul-09 12:33N 43°34' E 007°07'0 0.0
2016-Jul-09 11:33N 43°34' E 007°07'0 0.0
2016-Jul-09 10:33N 43°34' E 007°07'0 0.0
2016-Jul-09 09:33N 43°34' E 007°07'0 0.0
2016-Jul-09 08:33N 43°34' E 007°07'0 0.0
2016-Jul-09 07:33N 43°34' E 007°07'0 0.0
2016-Jul-09 06:33N 43°34' E 007°07'0 0.0
2016-Jul-09 04:33N 43°34' E 007°07'0 0.0
2016-Jul-09 03:33N 43°34' E 007°07'0 0.0
2016-Jul-09 02:33N 43°34' E 007°07'0 0.0
2016-Jul-09 01:33N 43°34' E 007°07'0 0.0
2016-Jul-09 00:33N 43°34' E 007°07'0 0.0
2016-Jul-08 23:33N 43°34' E 007°07'2 1.9
2016-Jul-08 22:33N 43°32' E 007°08'1312.7
2016-Jul-08 21:32N 43°41' E 007°22'1 0.9
2016-Jul-08 20:28N 43°42' E 007°21'0 0.0
2016-Jul-08 19:20N 43°42' E 007°21'0 0.0
2016-Jul-08 15:11N 43°42' E 007°21'0 0.0
2016-Jul-08 12:25N 43°42' E 007°21'0 0.0
2016-Jul-08 09:24N 43°42' E 007°21'0 0.0
2016-Jul-08 08:24N 43°42' E 007°21'1 1.0
2016-Jul-08 07:33N 43°42' E 007°21'  
2016-Jul-05 11:19N 43°44' E 007°26'5112.9
2016-Jul-05 07:21N 44°08' E 008°29'1214.6
2016-Jul-05 06:33N 44°17' E 008°40'11 5.5
2016-Jul-05 04:34N 44°25' E 008°50'0 0.0
2016-Jul-05 03:34N 44°25' E 008°50'0 0.0
2016-Jul-05 02:34N 44°25' E 008°50'2 2.3
2016-Jul-05 01:34N 44°24' E 008°48'1211.9
2016-Jul-05 00:33N 44°19' E 009°03'8 3.6
2016-Jul-04 22:27N 44°19' E 009°13'0 0.0
2016-Jul-04 21:24N 44°19' E 009°13'0 0.0
2016-Jul-04 20:31N 44°19' E 009°13'0 0.0
2016-Jul-04 16:10N 44°19' E 009°13'0 0.0
2016-Jul-04 12:21N 44°19' E 009°13'0 0.0
2016-Jul-04 11:22N 44°19' E 009°13'0 0.0
2016-Jul-04 10:26N 44°19' E 009°13'0 0.0
2016-Jul-04 09:20N 44°19' E 009°13'0 0.0
2016-Jul-04 08:33N 44°19' E 009°13'0 0.0
2016-Jul-04 07:34N 44°19' E 009°13'0 0.0
2016-Jul-04 06:19N 44°19' E 009°13'0 0.0
2016-Jul-04 04:30N 44°19' E 009°13'0 0.0
2016-Jul-04 03:15N 44°19' E 009°13'0 0.0
2016-Jul-04 02:28N 44°19' E 009°13'0 0.0
2016-Jul-04 01:20N 44°19' E 009°13'0 0.0
2016-Jul-04 00:11N 44°19' E 009°13'0 0.0
2016-Jul-03 23:18N 44°19' E 009°13'  

Dump ship's entire track history